sensor_id;sensor_type;location;lat;lon;timestamp;temperature;humidity
43320;DHT22;28914;48.722;9.332;2023-07-20T00:04:18;24.20;50.00
43320;DHT22;28914;48.722;9.332;2023-07-20T00:09:38;24.10;50.40
43320;DHT22;28914;48.722;9.332;2023-07-20T00:14:57;24.00;50.60
43320;DHT22;28914;48.722;9.332;2023-07-20T00:20:16;23.80;50.90
43320;DHT22;28914;48.722;9.332;2023-07-20T00:25:35;23.70;51.20
43320;DHT22;28914;48.722;9.332;2023-07-20T00:30:55;23.50;51.40
43320;DHT22;28914;48.722;9.332;2023-07-20T00:36:14;23.30;51.80
43320;DHT22;28914;48.722;9.332;2023-07-20T00:41:33;23.10;51.90
43320;DHT22;28914;48.722;9.332;2023-07-20T00:46:52;22.80;51.50
43320;DHT22;28914;48.722;9.332;2023-07-20T00:52:13;22.70;51.10
43320;DHT22;28914;48.722;9.332;2023-07-20T00:57:33;22.60;51.20
43320;DHT22;28914;48.722;9.332;2023-07-20T01:02:52;22.50;51.40
43320;DHT22;28914;48.722;9.332;2023-07-20T01:14:05;22.30;52.70
43320;DHT22;28914;48.722;9.332;2023-07-20T01:19:24;22.10;52.30
43320;DHT22;28914;48.722;9.332;2023-07-20T01:25:21;22.00;52.40
43320;DHT22;28914;48.722;9.332;2023-07-20T01:30:58;21.90;52.80
43320;DHT22;28914;48.722;9.332;2023-07-20T01:36:18;21.80;53.10
43320;DHT22;28914;48.722;9.332;2023-07-20T01:41:38;21.70;53.10
43320;DHT22;28914;48.722;9.332;2023-07-20T01:46:57;21.70;53.20
43320;DHT22;28914;48.722;9.332;2023-07-20T01:52:17;21.60;53.50
43320;DHT22;28914;48.722;9.332;2023-07-20T01:57:36;21.50;53.70
43320;DHT22;28914;48.722;9.332;2023-07-20T02:02:55;21.30;53.90
43320;DHT22;28914;48.722;9.332;2023-07-20T02:08:14;21.20;54.30
43320;DHT22;28914;48.722;9.332;2023-07-20T02:13:35;21.10;54.60
43320;DHT22;28914;48.722;9.332;2023-07-20T02:18:55;20.90;54.90
43320;DHT22;28914;48.722;9.332;2023-07-20T02:24:16;20.80;55.10
43320;DHT22;28914;48.722;9.332;2023-07-20T02:29:34;20.60;55.60
43320;DHT22;28914;48.722;9.332;2023-07-20T02:34:54;20.50;55.60
43320;DHT22;28914;48.722;9.332;2023-07-20T02:40:14;20.40;56.00
43320;DHT22;28914;48.722;9.332;2023-07-20T02:45:33;20.20;56.10
43320;DHT22;28914;48.722;9.332;2023-07-20T02:50:52;20.20;56.40
43320;DHT22;28914;48.722;9.332;2023-07-20T02:56:11;20.10;56.70
43320;DHT22;28914;48.722;9.332;2023-07-20T03:01:31;20.00;56.90
43320;DHT22;28914;48.722;9.332;2023-07-20T03:06:50;19.90;57.20
43320;DHT22;28914;48.722;9.332;2023-07-20T03:12:09;19.80;57.20
43320;DHT22;28914;48.722;9.332;2023-07-20T03:17:28;19.80;57.10
43320;DHT22;28914;48.722;9.332;2023-07-20T03:22:47;19.70;57.70
43320;DHT22;28914;48.722;9.332;2023-07-20T03:28:06;19.70;57.70
43320;DHT22;28914;48.722;9.332;2023-07-20T03:33:28;19.60;57.80
43320;DHT22;28914;48.722;9.332;2023-07-20T03:38:47;19.60;58.10
43320;DHT22;28914;48.722;9.332;2023-07-20T03:44:06;19.50;58.30
43320;DHT22;28914;48.722;9.332;2023-07-20T03:49:26;19.40;58.20
43320;DHT22;28914;48.722;9.332;2023-07-20T03:54:45;19.30;58.50
43320;DHT22;28914;48.722;9.332;2023-07-20T04:00:05;19.20;58.60
43320;DHT22;28914;48.722;9.332;2023-07-20T04:05:26;19.20;59.20
43320;DHT22;28914;48.722;9.332;2023-07-20T04:10:46;19.10;59.60
43320;DHT22;28914;48.722;9.332;2023-07-20T04:16:05;19.10;59.30
43320;DHT22;28914;48.722;9.332;2023-07-20T04:21:27;19.10;59.70
43320;DHT22;28914;48.722;9.332;2023-07-20T04:26:46;19.10;59.70
43320;DHT22;28914;48.722;9.332;2023-07-20T04:32:06;19.10;60.20
43320;DHT22;28914;48.722;9.332;2023-07-20T04:37:25;19.20;61.10
43320;DHT22;28914;48.722;9.332;2023-07-20T04:42:44;19.20;61.90
43320;DHT22;28914;48.722;9.332;2023-07-20T04:48:08;19.30;61.50
43320;DHT22;28914;48.722;9.332;2023-07-20T04:53:28;19.50;61.20
43320;DHT22;28914;48.722;9.332;2023-07-20T04:58:47;19.60;61.10
43320;DHT22;28914;48.722;9.332;2023-07-20T05:04:06;19.80;61.20
43320;DHT22;28914;48.722;9.332;2023-07-20T05:09:25;20.00;61.10
43320;DHT22;28914;48.722;9.332;2023-07-20T05:14:45;20.20;60.90
43320;DHT22;28914;48.722;9.332;2023-07-20T05:20:04;20.40;60.70
43320;DHT22;28914;48.722;9.332;2023-07-20T05:25:23;20.60;60.60
43320;DHT22;28914;48.722;9.332;2023-07-20T05:30:42;20.80;60.30
43320;DHT22;28914;48.722;9.332;2023-07-20T05:36:02;21.00;59.90
43320;DHT22;28914;48.722;9.332;2023-07-20T05:41:21;21.30;59.80
43320;DHT22;28914;48.722;9.332;2023-07-20T05:46:41;21.50;59.60
43320;DHT22;28914;48.722;9.332;2023-07-20T05:52:00;21.80;59.20
43320;DHT22;28914;48.722;9.332;2023-07-20T05:57:20;22.00;58.80
43320;DHT22;28914;48.722;9.332;2023-07-20T06:02:39;22.30;59.10
43320;DHT22;28914;48.722;9.332;2023-07-20T06:07:59;22.50;58.10
43320;DHT22;28914;48.722;9.332;2023-07-20T06:13:19;22.70;57.70
43320;DHT22;28914;48.722;9.332;2023-07-20T06:18:38;22.80;57.70
43320;DHT22;28914;48.722;9.332;2023-07-20T06:23:57;23.10;57.30
43320;DHT22;28914;48.722;9.332;2023-07-20T06:29:18;23.20;56.70
43320;DHT22;28914;48.722;9.332;2023-07-20T06:34:38;23.40;56.00
43320;DHT22;28914;48.722;9.332;2023-07-20T06:39:57;23.50;56.30
43320;DHT22;28914;48.722;9.332;2023-07-20T06:45:16;23.80;56.20
43320;DHT22;28914;48.722;9.332;2023-07-20T06:50:36;24.00;55.60
43320;DHT22;28914;48.722;9.332;2023-07-20T06:55:55;24.20;55.60
43320;DHT22;28914;48.722;9.332;2023-07-20T07:01:18;24.50;55.20
43320;DHT22;28914;48.722;9.332;2023-07-20T07:06:37;24.90;55.10
43320;DHT22;28914;48.722;9.332;2023-07-20T07:11:57;25.20;54.60
43320;DHT22;28914;48.722;9.332;2023-07-20T07:17:16;25.60;54.40
43320;DHT22;28914;48.722;9.332;2023-07-20T07:22:35;26.00;53.40
43320;DHT22;28914;48.722;9.332;2023-07-20T07:27:55;26.40;53.80
43320;DHT22;28914;48.722;9.332;2023-07-20T07:33:14;26.70;53.00
43320;DHT22;28914;48.722;9.332;2023-07-20T07:38:34;27.00;52.50
43320;DHT22;28914;48.722;9.332;2023-07-20T07:43:53;27.30;52.00
43320;DHT22;28914;48.722;9.332;2023-07-20T07:49:12;27.70;51.80
43320;DHT22;28914;48.722;9.332;2023-07-20T07:54:31;28.30;51.80
43320;DHT22;28914;48.722;9.332;2023-07-20T07:59:50;28.90;50.90
43320;DHT22;28914;48.722;9.332;2023-07-20T08:05:09;29.80;46.50
43320;DHT22;28914;48.722;9.332;2023-07-20T08:10:29;30.10;47.10
43320;DHT22;28914;48.722;9.332;2023-07-20T08:15:52;30.60;48.80
43320;DHT22;28914;48.722;9.332;2023-07-20T08:21:12;31.70;43.80
43320;DHT22;28914;48.722;9.332;2023-07-20T08:26:31;32.70;45.10
43320;DHT22;28914;48.722;9.332;2023-07-20T08:31:50;33.30;43.40
43320;DHT22;28914;48.722;9.332;2023-07-20T08:37:09;33.60;42.70
43320;DHT22;28914;48.722;9.332;2023-07-20T08:42:32;34.20;39.00
43320;DHT22;28914;48.722;9.332;2023-07-20T08:47:52;34.70;39.20
43320;DHT22;28914;48.722;9.332;2023-07-20T08:53:12;35.90;40.80
43320;DHT22;28914;48.722;9.332;2023-07-20T08:58:33;37.60;40.00
43320;DHT22;28914;48.722;9.332;2023-07-20T09:03:53;39.30;33.60
43320;DHT22;28914;48.722;9.332;2023-07-20T09:09:13;40.70;35.90
43320;DHT22;28914;48.722;9.332;2023-07-20T09:14:32;41.60;32.80
43320;DHT22;28914;48.722;9.332;2023-07-20T09:19:51;41.40;30.90
43320;DHT22;28914;48.722;9.332;2023-07-20T09:25:15;41.20;32.20
43320;DHT22;28914;48.722;9.332;2023-07-20T09:30:35;41.80;31.50
43320;DHT22;28914;48.722;9.332;2023-07-20T09:35:54;42.50;30.90
43320;DHT22;28914;48.722;9.332;2023-07-20T09:41:14;43.00;29.70
43320;DHT22;28914;48.722;9.332;2023-07-20T09:46:47;43.10;29.20
43320;DHT22;28914;48.722;9.332;2023-07-20T09:52:08;42.30;28.10
43320;DHT22;28914;48.722;9.332;2023-07-20T09:57:29;41.10;29.10
43320;DHT22;28914;48.722;9.332;2023-07-20T10:02:49;40.80;30.30
43320;DHT22;28914;48.722;9.332;2023-07-20T10:08:12;41.40;30.40
43320;DHT22;28914;48.722;9.332;2023-07-20T10:13:32;41.60;29.60
43320;DHT22;28914;48.722;9.332;2023-07-20T10:19:07;40.90;29.10
43320;DHT22;28914;48.722;9.332;2023-07-20T10:24:27;40.40;29.70
43320;DHT22;28914;48.722;9.332;2023-07-20T10:29:47;41.00;30.60
43320;DHT22;28914;48.722;9.332;2023-07-20T10:35:15;42.20;31.70
43320;DHT22;28914;48.722;9.332;2023-07-20T10:40:38;43.70;29.40
43320;DHT22;28914;48.722;9.332;2023-07-20T10:45:57;45.00;28.80
43320;DHT22;28914;48.722;9.332;2023-07-20T10:51:20;46.00;28.00
43320;DHT22;28914;48.722;9.332;2023-07-20T10:56:40;46.60;27.10
43320;DHT22;28914;48.722;9.332;2023-07-20T11:01:59;47.00;26.00
43320;DHT22;28914;48.722;9.332;2023-07-20T11:07:50;46.70;25.90
43320;DHT22;28914;48.722;9.332;2023-07-20T11:18:36;43.80;25.20
43320;DHT22;28914;48.722;9.332;2023-07-20T11:23:58;42.90;26.90
43320;DHT22;28914;48.722;9.332;2023-07-20T11:29:21;42.40;27.70
43320;DHT22;28914;48.722;9.332;2023-07-20T11:34:40;41.70;26.80
43320;DHT22;28914;48.722;9.332;2023-07-20T11:40:00;40.50;26.70
43320;DHT22;28914;48.722;9.332;2023-07-20T11:45:19;39.30;27.80
43320;DHT22;28914;48.722;9.332;2023-07-20T11:50:39;38.30;27.90
43320;DHT22;28914;48.722;9.332;2023-07-20T11:55:59;37.50;28.70
43320;DHT22;28914;48.722;9.332;2023-07-20T12:01:18;36.70;28.80
43320;DHT22;28914;48.722;9.332;2023-07-20T12:06:37;36.10;29.20
43320;DHT22;28914;48.722;9.332;2023-07-20T12:11:56;35.50;29.50
43320;DHT22;28914;48.722;9.332;2023-07-20T12:17:16;34.90;29.60
43320;DHT22;28914;48.722;9.332;2023-07-20T12:22:43;34.40;29.80
43320;DHT22;28914;48.722;9.332;2023-07-20T12:28:05;34.10;30.10
43320;DHT22;28914;48.722;9.332;2023-07-20T12:33:24;33.80;30.50
43320;DHT22;28914;48.722;9.332;2023-07-20T12:38:43;33.60;31.10
43320;DHT22;28914;48.722;9.332;2023-07-20T12:44:03;33.50;30.80
43320;DHT22;28914;48.722;9.332;2023-07-20T12:49:22;33.40;31.30
43320;DHT22;28914;48.722;9.332;2023-07-20T12:54:41;33.20;31.10
43320;DHT22;28914;48.722;9.332;2023-07-20T13:00:02;32.90;31.60
43320;DHT22;28914;48.722;9.332;2023-07-20T13:05:22;32.80;31.60
43320;DHT22;28914;48.722;9.332;2023-07-20T13:10:43;32.60;31.80
43320;DHT22;28914;48.722;9.332;2023-07-20T13:16:02;32.60;31.70
43320;DHT22;28914;48.722;9.332;2023-07-20T13:21:21;32.60;32.30
43320;DHT22;28914;48.722;9.332;2023-07-20T13:26:42;32.60;32.20
43320;DHT22;28914;48.722;9.332;2023-07-20T13:32:02;32.60;32.40
43320;DHT22;28914;48.722;9.332;2023-07-20T13:37:23;32.60;32.00
43320;DHT22;28914;48.722;9.332;2023-07-20T13:42:42;32.40;32.00
43320;DHT22;28914;48.722;9.332;2023-07-20T13:48:01;32.10;32.10
43320;DHT22;28914;48.722;9.332;2023-07-20T13:53:21;31.90;32.00
43320;DHT22;28914;48.722;9.332;2023-07-20T13:58:41;31.80;32.40
43320;DHT22;28914;48.722;9.332;2023-07-20T14:04:00;31.70;32.80
43320;DHT22;28914;48.722;9.332;2023-07-20T14:09:20;31.70;32.90
43320;DHT22;28914;48.722;9.332;2023-07-20T14:14:40;31.70;32.60
43320;DHT22;28914;48.722;9.332;2023-07-20T14:19:59;31.70;32.50
43320;DHT22;28914;48.722;9.332;2023-07-20T14:25:19;31.60;32.10
43320;DHT22;28914;48.722;9.332;2023-07-20T14:30:38;31.50;31.90
43320;DHT22;28914;48.722;9.332;2023-07-20T14:35:57;31.40;32.00
43320;DHT22;28914;48.722;9.332;2023-07-20T14:41:16;31.30;32.40
43320;DHT22;28914;48.722;9.332;2023-07-20T14:46:35;31.20;32.50
43320;DHT22;28914;48.722;9.332;2023-07-20T14:51:54;31.30;32.50
43320;DHT22;28914;48.722;9.332;2023-07-20T14:57:14;31.30;32.40
43320;DHT22;28914;48.722;9.332;2023-07-20T15:02:34;31.40;32.40
43320;DHT22;28914;48.722;9.332;2023-07-20T15:07:53;31.40;32.10
43320;DHT22;28914;48.722;9.332;2023-07-20T15:13:13;31.40;32.20
43320;DHT22;28914;48.722;9.332;2023-07-20T15:18:32;31.40;32.00
43320;DHT22;28914;48.722;9.332;2023-07-20T15:23:51;31.40;31.90
43320;DHT22;28914;48.722;9.332;2023-07-20T15:29:10;31.30;31.80
43320;DHT22;28914;48.722;9.332;2023-07-20T15:34:30;31.10;31.90
43320;DHT22;28914;48.722;9.332;2023-07-20T15:39:50;31.00;31.50
43320;DHT22;28914;48.722;9.332;2023-07-20T15:45:09;30.90;31.80
43320;DHT22;28914;48.722;9.332;2023-07-20T15:50:29;30.70;32.00
43320;DHT22;28914;48.722;9.332;2023-07-20T15:55:53;30.60;32.00
43320;DHT22;28914;48.722;9.332;2023-07-20T16:01:15;30.50;32.00
43320;DHT22;28914;48.722;9.332;2023-07-20T16:06:34;30.40;32.20
43320;DHT22;28914;48.722;9.332;2023-07-20T16:11:54;30.20;32.10
43320;DHT22;28914;48.722;9.332;2023-07-20T16:17:13;30.10;32.90
43320;DHT22;28914;48.722;9.332;2023-07-20T16:22:32;30.00;32.40
43320;DHT22;28914;48.722;9.332;2023-07-20T16:27:52;29.90;32.20
43320;DHT22;28914;48.722;9.332;2023-07-20T16:33:11;29.70;32.20
43320;DHT22;28914;48.722;9.332;2023-07-20T16:38:30;29.60;32.40
43320;DHT22;28914;48.722;9.332;2023-07-20T16:43:49;29.50;32.40
43320;DHT22;28914;48.722;9.332;2023-07-20T16:49:10;29.40;32.60
43320;DHT22;28914;48.722;9.332;2023-07-20T16:54:31;29.30;32.60
43320;DHT22;28914;48.722;9.332;2023-07-20T16:59:50;29.20;32.80
43320;DHT22;28914;48.722;9.332;2023-07-20T17:05:09;29.00;32.90
43320;DHT22;28914;48.722;9.332;2023-07-20T17:10:29;28.90;33.00
43320;DHT22;28914;48.722;9.332;2023-07-20T17:15:49;28.80;33.20
43320;DHT22;28914;48.722;9.332;2023-07-20T17:21:08;28.70;33.30
43320;DHT22;28914;48.722;9.332;2023-07-20T17:26:27;28.60;33.20
43320;DHT22;28914;48.722;9.332;2023-07-20T17:31:47;28.50;33.30
43320;DHT22;28914;48.722;9.332;2023-07-20T17:37:06;28.40;33.50
43320;DHT22;28914;48.722;9.332;2023-07-20T17:42:25;28.30;33.70
43320;DHT22;28914;48.722;9.332;2023-07-20T17:47:44;28.20;33.60
43320;DHT22;28914;48.722;9.332;2023-07-20T17:53:03;28.10;33.70
43320;DHT22;28914;48.722;9.332;2023-07-20T17:58:23;28.00;33.90
43320;DHT22;28914;48.722;9.332;2023-07-20T18:03:42;27.90;34.10
43320;DHT22;28914;48.722;9.332;2023-07-20T18:09:02;27.80;34.10
43320;DHT22;28914;48.722;9.332;2023-07-20T18:14:21;27.60;34.30
43320;DHT22;28914;48.722;9.332;2023-07-20T18:19:40;27.50;34.70
43320;DHT22;28914;48.722;9.332;2023-07-20T18:24:59;27.30;34.70
43320;DHT22;28914;48.722;9.332;2023-07-20T18:30:18;27.30;35.00
43320;DHT22;28914;48.722;9.332;2023-07-20T18:35:38;27.00;35.60
43320;DHT22;28914;48.722;9.332;2023-07-20T18:40:57;26.80;36.10
43320;DHT22;28914;48.722;9.332;2023-07-20T18:46:17;26.60;36.70
43320;DHT22;28914;48.722;9.332;2023-07-20T18:51:39;26.40;37.10
43320;DHT22;28914;48.722;9.332;2023-07-20T18:56:58;26.20;37.60
43320;DHT22;28914;48.722;9.332;2023-07-20T19:02:17;26.00;37.70
43320;DHT22;28914;48.722;9.332;2023-07-20T19:07:38;25.80;39.00
43320;DHT22;28914;48.722;9.332;2023-07-20T19:12:57;25.60;38.40
43320;DHT22;28914;48.722;9.332;2023-07-20T19:18:17;25.40;38.70
43320;DHT22;28914;48.722;9.332;2023-07-20T19:23:35;25.20;39.30
43320;DHT22;28914;48.722;9.332;2023-07-20T19:28:55;25.00;39.70
43320;DHT22;28914;48.722;9.332;2023-07-20T19:34:14;24.80;39.60
43320;DHT22;28914;48.722;9.332;2023-07-20T19:39:33;24.60;39.80
43320;DHT22;28914;48.722;9.332;2023-07-20T19:44:53;24.40;40.10
43320;DHT22;28914;48.722;9.332;2023-07-20T19:50:12;24.20;40.60
43320;DHT22;28914;48.722;9.332;2023-07-20T19:55:31;24.00;41.10
43320;DHT22;28914;48.722;9.332;2023-07-20T20:00:51;23.90;42.30
43320;DHT22;28914;48.722;9.332;2023-07-20T20:06:10;23.70;42.40
43320;DHT22;28914;48.722;9.332;2023-07-20T20:11:30;23.60;42.20
43320;DHT22;28914;48.722;9.332;2023-07-20T20:16:49;23.40;42.70
43320;DHT22;28914;48.722;9.332;2023-07-20T20:22:08;23.30;43.40
43320;DHT22;28914;48.722;9.332;2023-07-20T20:27:27;23.10;43.20
43320;DHT22;28914;48.722;9.332;2023-07-20T20:32:47;23.00;43.20
43320;DHT22;28914;48.722;9.332;2023-07-20T20:38:06;22.90;44.30
43320;DHT22;28914;48.722;9.332;2023-07-20T20:43:26;22.70;44.10
43320;DHT22;28914;48.722;9.332;2023-07-20T20:48:48;22.60;43.80
43320;DHT22;28914;48.722;9.332;2023-07-20T20:54:10;22.50;44.10
43320;DHT22;28914;48.722;9.332;2023-07-20T20:59:30;22.40;44.40
43320;DHT22;28914;48.722;9.332;2023-07-20T21:04:49;22.30;44.90
43320;DHT22;28914;48.722;9.332;2023-07-20T21:10:09;22.10;45.40
43320;DHT22;28914;48.722;9.332;2023-07-20T21:15:29;22.10;45.40
43320;DHT22;28914;48.722;9.332;2023-07-20T21:20:49;22.00;46.00
43320;DHT22;28914;48.722;9.332;2023-07-20T21:26:08;21.90;46.20
43320;DHT22;28914;48.722;9.332;2023-07-20T21:31:28;21.80;46.20
43320;DHT22;28914;48.722;9.332;2023-07-20T21:36:47;21.80;46.40
43320;DHT22;28914;48.722;9.332;2023-07-20T21:42:06;21.70;46.80
43320;DHT22;28914;48.722;9.332;2023-07-20T21:47:25;21.60;47.80
43320;DHT22;28914;48.722;9.332;2023-07-20T21:52:44;21.50;47.60
43320;DHT22;28914;48.722;9.332;2023-07-20T21:58:04;21.40;47.40
43320;DHT22;28914;48.722;9.332;2023-07-20T22:03:23;21.30;48.30
43320;DHT22;28914;48.722;9.332;2023-07-20T22:08:42;21.20;48.40
43320;DHT22;28914;48.722;9.332;2023-07-20T22:14:01;21.00;48.70
43320;DHT22;28914;48.722;9.332;2023-07-20T22:19:20;20.90;48.90
43320;DHT22;28914;48.722;9.332;2023-07-20T22:24:39;20.80;49.20
43320;DHT22;28914;48.722;9.332;2023-07-20T22:29:59;20.60;49.60
43320;DHT22;28914;48.722;9.332;2023-07-20T22:35:18;20.50;49.50
43320;DHT22;28914;48.722;9.332;2023-07-20T22:40:37;20.50;49.60
43320;DHT22;28914;48.722;9.332;2023-07-20T22:45:56;20.40;50.30
43320;DHT22;28914;48.722;9.332;2023-07-20T22:51:15;20.30;51.00
43320;DHT22;28914;48.722;9.332;2023-07-20T22:56:35;20.20;51.10
43320;DHT22;28914;48.722;9.332;2023-07-20T23:01:54;20.10;51.20
43320;DHT22;28914;48.722;9.332;2023-07-20T23:07:13;20.00;51.60
43320;DHT22;28914;48.722;9.332;2023-07-20T23:12:32;20.00;51.60
43320;DHT22;28914;48.722;9.332;2023-07-20T23:17:52;20.00;52.10
43320;DHT22;28914;48.722;9.332;2023-07-20T23:23:11;19.90;52.50
43320;DHT22;28914;48.722;9.332;2023-07-20T23:28:30;19.80;53.00
43320;DHT22;28914;48.722;9.332;2023-07-20T23:33:49;19.80;53.50
43320;DHT22;28914;48.722;9.332;2023-07-20T23:39:09;19.70;54.10
43320;DHT22;28914;48.722;9.332;2023-07-20T23:44:29;19.70;53.90
43320;DHT22;28914;48.722;9.332;2023-07-20T23:49:48;19.70;53.80
43320;DHT22;28914;48.722;9.332;2023-07-20T23:55:08;19.70;53.90
